Hauptseite
METAR-TAF:

METAR-TAF

Flughäfen :

Faßberg, Deutschland

Heeresflugplatz Faßberg

Breite: 52-55N, Länge: 010-11E, Höhe: 75 m

Beobachtung

Neuester Wetterbericht von vor 13 Minuten, um 11:20 UTC
Wind 8 kt aus Nordwest
Temperatur 12°C
Luftfeuchtigkeit 26%
Luftdruck 1030 hPa
Sichtweite 10 km oder mehr
Leicht bewölkt in der Höhe von 25000 ft
Durchbrochene Bewölkung in der Höhe von 37000 ft

METAR: ETHS 251120Z 32008KT 9999 FEW250 BKN370 12/M07 Q1030 BLU+

Zeit: 12:33 (11:33 UTC)

Prognose

Neuester Wetterbericht von vor 24 Stunden und 36 Minuten, um 10:57 UTC
Gültige Prognose vom 24 um 09 UTC bis 24 um 18 UTC
Wind 10 kt aus Ost
Sichtweite: 1120 m
Aufgelockert bewölkt in der Höhe von 28000 ft

TAF: ETHS 241057Z 2409/2418 08010KT 9999 NSW SCT280 CANCEL 1120

Wetterbeobachtungen und Prognosen von mehr als 4000 Flughäfen (METAR und TAF Bericht).

Die verfügbaren Stationen werden durch gelbe und rote Markierungen auf der Karte dargestellt.

Führen Sie die Maus auf sie, um den Namen der Station zu sehen.

Darauf klicken, um die Beobachtung von Wetterbeobachtungen und Prognosen zu sehen.

Um die Karte zu ändern : klicken Sie auf den grünen Tasten mit einem schwarzen Kreuz Zum Vergrößern, auf den grünen Button mit einem Gedankenstrich zu verkleinern, oder auf die grünen Pfeile für benachbarte Karten.


METAR-TAF: